Huvudsida
METAR-TAF:

METAR-TAF

Flygplatser :

Ängelholm-Helsingborg Airport

Helsingborg, Sverige

latitud: 56-17-46N, longitud: 012-50-50E, höjd: 21 m

Aktuellt väderrapport

Denna rapport gjordes för 29 minuter sedan, klockan 09:20 UTC
Vind 13 kt från ost
Temperatur 21°C
Fuktighet 60%
Tryck 1025 hPa
Sikt 10 km eller mer
Brutna moln på en höjd av 3200 ft
Mulet på en höjd av 8000 ft

METAR: ESTA 270920Z 10013KT 9999 BKN032 OVC080 21/13 Q1025

Tid: 11:49 (09:49 UTC)


TAF: saknas

Aktuella väderrapporter och prognoser från 4000 flygplatser (METAR- och TAF-rapporter).

De tillgängliga stationerna syns som gula och röda prickar på kartan.

För musen över prickarna för att se namnen på stationerna.

Klicka sedan för att få väderrapporter och prognoser.

För att ändra kartan: Klicka på de gröna knapparna med ett svart kors på för att zooma in; den gröna knappen med ett streck på för att zooma ut; eller på de gröna pilarna för angränsande kartor.


METAR-TAF: